createdAt,value
2019-03-25T00:00:09.655Z,85.69
2019-03-25T00:01:09.618Z,85.49
2019-03-25T00:02:09.673Z,85.80
2019-03-25T00:03:09.597Z,85.59
2019-03-25T00:04:09.586Z,85.49
2019-03-25T00:05:09.576Z,85.80
2019-03-25T00:06:09.590Z,85.94
2019-03-25T00:07:09.554Z,86.25
2019-03-25T00:08:09.554Z,86.77
2019-03-25T00:09:09.573Z,87.08
2019-03-25T00:10:09.545Z,87.12
2019-03-25T00:11:09.508Z,88.06
2019-03-25T00:12:09.500Z,87.65
2019-03-25T00:13:09.487Z,87.96
2019-03-25T00:14:09.491Z,87.99
2019-03-25T00:15:09.481Z,88.31
2019-03-25T00:16:09.509Z,88.20
2019-03-25T00:17:09.444Z,87.99
2019-03-25T00:18:09.449Z,88.20
2019-03-25T00:19:09.423Z,87.99
2019-03-25T00:20:09.438Z,87.99
2019-03-25T00:21:09.472Z,88.42
2019-03-25T00:22:09.392Z,87.99
2019-03-25T00:23:09.383Z,88.93
2019-03-25T00:24:09.389Z,88.83
2019-03-25T00:25:09.358Z,88.62
2019-03-25T00:26:09.353Z,88.93
2019-03-25T00:27:09.353Z,89.35
2019-03-25T00:28:09.331Z,89.60
2019-03-25T00:29:09.371Z,89.39
2019-03-25T00:30:09.308Z,89.39
2019-03-25T00:31:09.312Z,89.81
2019-03-25T00:32:09.282Z,90.22
2019-03-25T00:33:09.271Z,90.22
2019-03-25T00:34:09.267Z,90.12
2019-03-25T00:35:09.255Z,89.81
2019-03-25T00:36:09.257Z,90.12
2019-03-25T00:37:09.299Z,89.91
2019-03-25T00:38:09.218Z,90.33
2019-03-25T00:39:09.214Z,90.12
2019-03-25T00:40:09.204Z,90.01
2019-03-25T00:41:09.189Z,90.75
2019-03-25T00:42:09.194Z,90.01
2019-03-25T00:43:09.227Z,90.16
2019-03-25T00:44:09.155Z,89.85
2019-03-25T00:45:09.143Z,90.06
2019-03-25T00:46:09.146Z,91.00
2019-03-25T00:47:09.123Z,91.00
2019-03-25T00:48:09.131Z,91.72
2019-03-25T00:49:09.154Z,91.31
2019-03-25T00:50:09.306Z,91.62
2019-03-25T00:51:09.109Z,91.93
2019-03-25T00:52:09.081Z,91.72
2019-03-25T00:53:09.060Z,91.58
2019-03-25T00:54:09.047Z,91.27
2019-03-25T00:55:09.081Z,92.10
2019-03-25T00:56:09.026Z,92.00
2019-03-25T00:57:09.034Z,91.89
2019-03-25T00:58:09.006Z,91.75
2019-03-25T00:59:09.004Z,91.68
2019-03-25T01:00:08.980Z,91.64
2019-03-25T01:01:08.972Z,91.33
2019-03-25T01:02:09.034Z,91.12
2019-03-25T01:03:09.022Z,91.22
2019-03-25T01:04:08.946Z,90.91
2019-03-25T01:05:08.928Z,90.77
2019-03-25T01:06:08.918Z,91.28
2019-03-25T01:07:08.924Z,89.94
2019-03-25T01:08:08.933Z,90.00
2019-03-25T01:09:08.889Z,89.69
2019-03-25T01:10:08.880Z,88.54
2019-03-25T01:11:08.943Z,88.54
2019-03-25T01:12:08.894Z,88.29
2019-03-25T01:13:08.839Z,87.88
2019-03-25T01:14:08.830Z,87.56
2019-03-25T01:15:08.836Z,87.77
2019-03-25T01:16:08.840Z,87.15
2019-03-25T01:17:08.828Z,87.77
2019-03-25T01:18:16.873Z,87.77
2019-03-25T01:19:09.778Z,86.27
2019-03-25T01:20:08.870Z,85.65
2019-03-25T01:21:08.758Z,85.41
2019-03-25T01:22:08.743Z,85.75
2019-03-25T01:23:08.747Z,85.51
2019-03-25T01:24:08.723Z,84.99
2019-03-25T01:25:08.743Z,86.03
2019-03-25T01:26:08.717Z,85.13
2019-03-25T01:27:08.698Z,84.78
2019-03-25T01:28:08.679Z,84.47
2019-03-25T01:29:08.689Z,84.37
2019-03-25T01:30:08.659Z,84.99
2019-03-25T01:31:08.712Z,84.68
2019-03-25T01:32:08.641Z,84.33
2019-03-25T01:33:08.627Z,84.16
2019-03-25T01:34:08.619Z,83.95
2019-03-25T01:35:08.635Z,84.33
2019-03-25T01:36:08.595Z,83.18
2019-03-25T01:37:08.597Z,83.50
2019-03-25T01:38:08.615Z,83.50
2019-03-25T01:39:08.566Z,83.39
2019-03-25T01:40:08.557Z,84.53
2019-03-25T01:41:08.570Z,83.74
2019-03-25T01:42:11.164Z,84.05
2019-03-25T01:43:08.561Z,84.27
2019-03-25T01:44:08.567Z,85.72
2019-03-25T01:45:08.509Z,85.10
2019-03-25T01:46:08.495Z,84.95
2019-03-25T01:47:08.480Z,85.20
2019-03-25T01:48:08.489Z,85.10
2019-03-25T01:49:08.460Z,84.95
2019-03-25T01:50:08.484Z,84.74
2019-03-25T01:51:08.437Z,84.70
2019-03-25T01:52:08.429Z,83.87
2019-03-25T01:53:08.528Z,84.08
2019-03-25T01:54:08.416Z,83.87
2019-03-25T01:55:13.546Z,83.87
2019-03-25T01:56:09.386Z,83.87
2019-03-25T01:57:08.393Z,83.46
2019-03-25T01:58:08.436Z,83.67
2019-03-25T01:59:08.357Z,83.25
2019-03-25T02:00:08.357Z,82.80
2019-03-25T02:01:08.341Z,83.32
2019-03-25T02:02:08.328Z,82.59
2019-03-25T02:03:08.309Z,82.07
2019-03-25T02:04:08.315Z,82.70
2019-03-25T02:05:08.329Z,82.59
2019-03-25T02:06:08.284Z,82.70
2019-03-25T02:07:08.274Z,82.49
2019-03-25T02:08:08.258Z,82.18
2019-03-25T02:09:08.261Z,83.32
2019-03-25T02:10:08.255Z,82.70
2019-03-25T02:11:08.250Z,83.22
2019-03-25T02:12:08.214Z,83.01
2019-03-25T02:13:08.210Z,83.11
2019-03-25T02:14:08.195Z,82.39
2019-03-25T02:15:08.188Z,82.59
2019-03-25T02:16:08.191Z,82.70
2019-03-25T02:17:08.186Z,82.70
2019-03-25T02:18:08.161Z,82.39
2019-03-25T02:19:08.142Z,82.28
2019-03-25T02:20:08.177Z,82.28
2019-03-25T02:21:08.121Z,82.59
2019-03-25T02:22:08.126Z,83.11
2019-03-25T02:23:08.312Z,82.80
2019-03-25T02:24:08.100Z,83.11
2019-03-25T02:25:08.099Z,83.32
2019-03-25T02:26:08.067Z,83.63
2019-03-25T02:27:08.058Z,83.84
2019-03-25T02:28:08.074Z,83.32
2019-03-25T02:29:08.036Z,83.22
2019-03-25T02:30:08.030Z,83.94
2019-03-25T02:31:08.016Z,83.84
2019-03-25T02:32:08.063Z,83.84
2019-03-25T02:33:08.009Z,84.05
2019-03-25T02:34:08.007Z,84.05
2019-03-25T02:35:07.973Z,84.05
2019-03-25T02:36:07.960Z,84.56
2019-03-25T02:37:07.954Z,83.63
2019-03-25T02:38:07.942Z,83.53
2019-03-25T02:39:07.972Z,82.80
2019-03-25T02:40:07.943Z,83.63
2019-03-25T02:41:07.932Z,84.25
2019-03-25T02:42:07.896Z,85.50
2019-03-25T02:43:07.907Z,85.60
2019-03-25T02:44:07.910Z,85.29
2019-03-25T02:45:07.882Z,85.71
2019-03-25T02:46:07.866Z,86.54
2019-03-25T02:47:07.882Z,86.95
2019-03-25T02:48:07.849Z,87.78
2019-03-25T02:49:07.821Z,87.82
2019-03-25T02:50:07.830Z,87.51
2019-03-25T02:51:07.841Z,87.51
2019-03-25T02:52:07.791Z,87.40
2019-03-25T02:53:07.780Z,87.51
2019-03-25T02:54:07.792Z,87.19
2019-03-25T02:55:07.766Z,87.61
2019-03-25T02:56:07.809Z,87.61
2019-03-25T02:57:07.778Z,87.82
2019-03-25T02:58:07.731Z,87.71
2019-03-25T02:59:07.718Z,87.40
2019-03-25T03:00:07.728Z,87.61
2019-03-25T03:01:07.704Z,87.61
2019-03-25T03:02:07.685Z,86.36
2019-03-25T03:03:07.743Z,86.88
2019-03-25T03:04:07.665Z,86.78
2019-03-25T03:05:07.653Z,86.78
2019-03-25T03:06:07.659Z,86.85
2019-03-25T03:07:07.634Z,86.36
2019-03-25T03:08:07.638Z,86.64
2019-03-25T03:09:07.636Z,86.26
2019-03-25T03:10:07.658Z,86.64
2019-03-25T03:11:07.600Z,86.68
2019-03-25T03:12:07.589Z,86.33
2019-03-25T03:13:07.579Z,85.81
2019-03-25T03:14:07.568Z,85.81
2019-03-25T03:15:07.568Z,85.91
2019-03-25T03:16:07.595Z,86.02
2019-03-25T03:17:07.580Z,86.85
2019-03-25T03:18:07.520Z,86.33
2019-03-25T03:19:07.523Z,85.39
2019-03-25T03:20:07.506Z,85.39
2019-03-25T03:21:07.488Z,86.02
2019-03-25T03:22:07.540Z,86.85
2019-03-25T03:23:07.483Z,86.85
2019-03-25T03:24:07.480Z,86.85
2019-03-25T03:25:07.448Z,87.05
2019-03-25T03:26:07.442Z,86.64
2019-03-25T03:27:07.431Z,86.43
2019-03-25T03:28:07.445Z,86.74
2019-03-25T03:29:07.414Z,86.43
2019-03-25T03:30:07.423Z,87.47
2019-03-25T03:31:07.393Z,86.85
2019-03-25T03:32:07.395Z,86.64
2019-03-25T03:33:07.366Z,87.68
2019-03-25T03:34:07.357Z,86.33
2019-03-25T03:35:07.384Z,86.12
2019-03-25T03:36:07.342Z,86.33
2019-03-25T03:37:07.323Z,86.85
2019-03-25T03:38:07.310Z,86.33
2019-03-25T03:39:07.316Z,86.64
2019-03-25T03:40:07.291Z,86.85
2019-03-25T03:41:07.318Z,87.05
2019-03-25T03:42:07.267Z,87.37
2019-03-25T03:43:07.256Z,87.68
2019-03-25T03:44:07.247Z,87.16
2019-03-25T03:45:07.277Z,87.57
2019-03-25T03:46:07.237Z,86.91
2019-03-25T03:47:07.239Z,86.91
2019-03-25T03:48:07.203Z,86.29
2019-03-25T03:49:07.221Z,85.87
2019-03-25T03:50:07.180Z,86.29
2019-03-25T03:51:07.175Z,86.60
2019-03-25T03:52:07.183Z,86.60
2019-03-25T03:53:07.158Z,86.60
2019-03-25T03:54:07.206Z,87.01
2019-03-25T03:55:07.125Z,87.32
2019-03-25T03:56:13.663Z,86.80
2019-03-25T03:57:08.112Z,86.29
2019-03-25T03:58:07.098Z,86.91
2019-03-25T03:59:07.113Z,86.60
2019-03-25T04:00:07.080Z,86.80
2019-03-25T04:01:07.086Z,86.80
2019-03-25T04:02:07.054Z,85.97
2019-03-25T04:03:07.051Z,86.35
2019-03-25T04:04:07.071Z,87.12
2019-03-25T04:05:07.022Z,86.76
2019-03-25T04:06:07.012Z,86.29
2019-03-25T04:07:06.999Z,86.39
2019-03-25T04:08:07.033Z,86.04
2019-03-25T04:09:06.986Z,86.66
2019-03-25T04:10:06.983Z,86.39
2019-03-25T04:11:06.957Z,86.35
2019-03-25T04:12:06.951Z,85.83
2019-03-25T04:13:06.938Z,85.42
2019-03-25T04:14:06.975Z,86.35
2019-03-25T04:15:06.919Z,86.45
2019-03-25T04:16:06.903Z,86.35
2019-03-25T04:17:06.902Z,86.83
2019-03-25T04:18:06.900Z,86.25
2019-03-25T04:19:06.908Z,86.55
2019-03-25T04:20:06.911Z,86.35
2019-03-25T04:21:06.857Z,86.97
2019-03-25T04:22:06.838Z,86.87
2019-03-25T04:23:06.845Z,86.55
2019-03-25T04:24:06.815Z,86.62
2019-03-25T04:25:06.825Z,87.70
2019-03-25T04:26:06.847Z,87.70
2019-03-25T04:27:06.830Z,87.38
2019-03-25T04:28:06.781Z,88.28
2019-03-25T04:29:06.766Z,88.79
2019-03-25T04:30:06.775Z,88.32
2019-03-25T04:31:06.752Z,88.73
2019-03-25T04:32:06.744Z,88.42
2019-03-25T04:33:06.731Z,89.42
2019-03-25T04:34:06.747Z,89.11
2019-03-25T04:35:06.755Z,89.15
2019-03-25T04:36:06.698Z,89.11
2019-03-25T04:37:06.678Z,89.31
2019-03-25T04:38:06.680Z,89.25
2019-03-25T04:39:06.662Z,89.73
2019-03-25T04:40:06.669Z,89.42
2019-03-25T04:41:06.669Z,89.87
2019-03-25T04:42:06.759Z,89.36
2019-03-25T04:43:06.618Z,89.56
2019-03-25T04:44:06.611Z,89.15
2019-03-25T04:45:06.598Z,89.98
2019-03-25T04:46:06.605Z,89.77
2019-03-25T04:47:06.572Z,89.36
2019-03-25T04:48:06.603Z,89.98
2019-03-25T04:49:06.578Z,89.42
2019-03-25T04:50:06.541Z,89.25
2019-03-25T04:51:06.533Z,89.56
2019-03-25T04:52:06.540Z,89.36
2019-03-25T04:53:06.508Z,89.36
2019-03-25T04:54:06.577Z,89.36
2019-03-25T04:55:06.501Z,89.36
2019-03-25T04:56:06.481Z,89.46
2019-03-25T04:57:06.464Z,89.98
2019-03-25T04:58:06.454Z,90.29
2019-03-25T04:59:06.445Z,89.67
2019-03-25T05:00:06.477Z,89.98
2019-03-25T05:01:06.428Z,89.36
2019-03-25T05:02:06.415Z,89.56
2019-03-25T05:03:06.616Z,89.52
2019-03-25T05:04:06.394Z,89.36
2019-03-25T05:05:06.385Z,89.52
2019-03-25T05:06:06.401Z,89.31
2019-03-25T05:07:06.422Z,89.73
2019-03-25T05:08:06.349Z,89.98
2019-03-25T05:09:06.342Z,89.31
2019-03-25T05:10:06.328Z,89.42
2019-03-25T05:11:06.330Z,90.14
2019-03-25T05:12:06.331Z,89.42
2019-03-25T05:13:06.341Z,89.42
2019-03-25T05:14:06.315Z,89.62
2019-03-25T05:15:06.274Z,89.31
2019-03-25T05:16:06.269Z,90.04
2019-03-25T05:17:06.261Z,89.42
2019-03-25T05:18:06.270Z,89.42
2019-03-25T05:19:06.240Z,89.42
2019-03-25T05:20:06.246Z,89.42
2019-03-25T05:21:06.218Z,89.25
2019-03-25T05:22:06.200Z,89.83
2019-03-25T05:23:06.192Z,89.94
2019-03-25T05:24:06.532Z,89.94
2019-03-25T05:25:06.173Z,89.52
2019-03-25T05:26:06.156Z,89.36
2019-03-25T05:27:06.211Z,89.83
2019-03-25T05:28:06.139Z,89.31
2019-03-25T05:29:06.124Z,89.42
2019-03-25T05:30:06.134Z,88.79
2019-03-25T05:31:06.121Z,89.52
2019-03-25T05:32:06.094Z,89.52
2019-03-25T05:33:06.103Z,88.79
2019-03-25T05:34:06.105Z,88.79
2019-03-25T05:35:06.089Z,89.11
2019-03-25T05:36:06.104Z,88.90
2019-03-25T05:37:06.047Z,88.79
2019-03-25T05:38:06.035Z,88.90
2019-03-25T05:39:06.027Z,87.97
2019-03-25T05:40:06.017Z,88.18
2019-03-25T05:41:06.014Z,88.18
2019-03-25T05:42:05.988Z,89.11
2019-03-25T05:43:05.981Z,88.79
2019-03-25T05:44:05.994Z,89.31
2019-03-25T05:45:05.976Z,88.79
2019-03-25T05:46:05.976Z,88.79
2019-03-25T05:47:05.953Z,89.31
2019-03-25T05:48:05.921Z,89.04
2019-03-25T05:49:05.914Z,88.90
2019-03-25T05:50:05.901Z,89.52
2019-03-25T05:51:05.932Z,89.52
2019-03-25T05:52:05.879Z,89.00
2019-03-25T05:53:05.877Z,89.36
2019-03-25T05:54:05.859Z,89.11
2019-03-25T05:55:05.847Z,89.52
2019-03-25T05:56:05.837Z,87.24
2019-03-25T05:57:05.863Z,87.76
2019-03-25T05:58:05.831Z,87.55
2019-03-25T05:59:05.847Z,88.18
2019-03-25T06:00:05.796Z,88.28
2019-03-25T06:01:05.849Z,88.73
2019-03-25T06:02:05.775Z,89.04
2019-03-25T06:03:05.777Z,88.94
2019-03-25T06:04:05.753Z,89.04
2019-03-25T06:05:05.771Z,88.84
2019-03-25T06:06:05.731Z,88.32
2019-03-25T06:07:05.739Z,88.53
2019-03-25T06:08:05.710Z,88.94
2019-03-25T06:09:05.726Z,88.63
2019-03-25T06:10:05.689Z,88.84
2019-03-25T06:11:05.680Z,88.73
2019-03-25T06:12:05.728Z,88.94
2019-03-25T06:13:05.657Z,89.04
2019-03-25T06:14:05.647Z,88.59
2019-03-25T06:15:05.638Z,89.11
2019-03-25T06:16:05.636Z,88.32
2019-03-25T06:17:05.619Z,88.90
2019-03-25T06:18:05.629Z,88.39
2019-03-25T06:19:05.707Z,88.11
2019-03-25T06:20:05.591Z,87.87
2019-03-25T06:21:05.592Z,88.01
2019-03-25T06:22:05.567Z,87.55
2019-03-25T06:23:05.649Z,87.70
2019-03-25T06:24:05.585Z,87.35
2019-03-25T06:25:05.536Z,87.04
2019-03-25T06:26:05.538Z,87.04
2019-03-25T06:27:13.588Z,86.31
2019-03-25T06:28:06.563Z,86.72
2019-03-25T06:29:05.512Z,86.72
2019-03-25T06:30:05.511Z,85.79
2019-03-25T06:31:05.465Z,85.79
2019-03-25T06:32:05.495Z,86.07
2019-03-25T06:33:12.304Z,85.13
2019-03-25T06:34:06.441Z,85.38
2019-03-25T06:35:05.500Z,85.86
2019-03-25T06:36:05.482Z,85.34
2019-03-25T06:37:05.433Z,85.34
2019-03-25T06:38:05.427Z,83.68
2019-03-25T06:39:05.397Z,83.68
2019-03-25T06:40:05.384Z,85.75
2019-03-25T06:41:05.390Z,84.30
2019-03-25T06:42:05.370Z,84.51
2019-03-25T06:43:05.345Z,84.92
2019-03-25T06:44:05.439Z,85.24
2019-03-25T06:45:05.318Z,84.06
2019-03-25T06:46:05.307Z,83.75
2019-03-25T06:47:05.318Z,83.58
2019-03-25T06:48:05.289Z,83.78
2019-03-25T06:49:05.293Z,83.64
2019-03-25T06:50:05.271Z,84.47
2019-03-25T06:51:05.260Z,83.16
2019-03-25T06:52:05.288Z,84.20
2019-03-25T06:53:05.274Z,84.09
2019-03-25T06:54:05.248Z,83.89
2019-03-25T06:55:05.265Z,83.99
2019-03-25T06:56:05.199Z,84.92
2019-03-25T06:57:05.269Z,84.72
2019-03-25T06:58:05.199Z,85.13
2019-03-25T06:59:05.168Z,84.96
2019-03-25T07:00:05.155Z,85.06
2019-03-25T07:01:05.168Z,85.27
2019-03-25T07:02:05.185Z,85.38
2019-03-25T07:03:05.126Z,85.38
2019-03-25T07:04:05.116Z,85.24
2019-03-25T07:05:05.104Z,85.13
2019-03-25T07:06:05.098Z,83.64
2019-03-25T07:07:05.085Z,83.75
2019-03-25T07:08:05.148Z,85.19
2019-03-25T07:09:05.286Z,84.68
2019-03-25T07:10:05.050Z,85.19
2019-03-25T07:11:05.039Z,85.61
2019-03-25T07:12:05.052Z,85.40
2019-03-25T07:13:05.018Z,85.40
2019-03-25T07:14:05.008Z,85.50
2019-03-25T07:15:05.015Z,85.82
2019-03-25T07:16:04.994Z,85.40
2019-03-25T07:17:04.985Z,84.88
2019-03-25T07:18:05.012Z,85.30
2019-03-25T07:19:04.985Z,85.30
2019-03-25T07:20:04.947Z,86.13
2019-03-25T07:21:04.934Z,86.44
2019-03-25T07:22:04.924Z,86.13
2019-03-25T07:23:04.935Z,86.65
2019-03-25T07:24:04.907Z,86.13
2019-03-25T07:25:05.044Z,86.37
2019-03-25T07:26:04.931Z,87.20
2019-03-25T07:27:04.888Z,87.30
2019-03-25T07:28:04.893Z,86.27
2019-03-25T07:29:04.897Z,86.07
2019-03-25T07:30:05.037Z,86.47
2019-03-25T07:31:04.838Z,86.68
2019-03-25T07:32:04.844Z,86.79
2019-03-25T07:33:04.811Z,87.10
2019-03-25T07:34:04.916Z,87.51
2019-03-25T07:35:04.849Z,86.37
2019-03-25T07:36:04.774Z,86.37
2019-03-25T07:37:04.780Z,86.68
2019-03-25T07:38:04.781Z,86.47
2019-03-25T07:39:04.749Z,86.02
2019-03-25T07:40:04.751Z,86.02
2019-03-25T07:41:04.725Z,86.44
2019-03-25T07:42:04.713Z,85.82
2019-03-25T07:43:04.744Z,85.30
2019-03-25T07:44:04.697Z,85.40
2019-03-25T07:45:04.718Z,85.82
2019-03-25T07:46:04.665Z,85.82
2019-03-25T07:47:04.660Z,85.40
2019-03-25T07:48:04.682Z,84.99
2019-03-25T07:49:04.638Z,84.27
2019-03-25T07:50:04.625Z,85.68
2019-03-25T07:51:04.692Z,84.95
2019-03-25T07:52:06.989Z,85.47
2019-03-25T07:53:04.610Z,84.12
2019-03-25T07:54:04.591Z,84.84
2019-03-25T07:55:04.576Z,85.78
2019-03-25T07:56:04.572Z,85.36
2019-03-25T07:57:04.600Z,84.74
2019-03-25T07:58:04.540Z,85.47
2019-03-25T07:59:04.555Z,84.64
2019-03-25T08:00:13.169Z,84.95
2019-03-25T08:01:05.511Z,85.47
2019-03-25T08:02:04.498Z,85.57
2019-03-25T08:03:04.527Z,83.50
2019-03-25T08:04:04.489Z,84.43
2019-03-25T08:05:04.487Z,82.98
2019-03-25T08:06:04.488Z,84.33
2019-03-25T08:07:04.481Z,84.64
2019-03-25T08:08:04.463Z,85.16
2019-03-25T08:09:04.427Z,85.78
2019-03-25T08:10:04.434Z,85.57
2019-03-25T08:11:04.491Z,84.12
2019-03-25T08:12:04.424Z,83.71
2019-03-25T08:13:04.563Z,82.46
2019-03-25T08:14:04.425Z,83.71
2019-03-25T08:15:04.361Z,83.46
2019-03-25T08:16:04.357Z,82.95
2019-03-25T08:17:04.368Z,82.22
2019-03-25T08:18:04.355Z,82.32
2019-03-25T08:19:04.364Z,82.22
2019-03-25T08:20:04.314Z,80.88
2019-03-25T08:21:04.300Z,82.32
2019-03-25T08:22:04.287Z,82.12
2019-03-25T08:23:04.301Z,82.95
2019-03-25T08:24:04.272Z,81.09
2019-03-25T08:25:04.297Z,81.39
2019-03-25T08:26:04.246Z,82.08
2019-03-25T08:27:04.237Z,81.05
2019-03-25T08:28:04.224Z,81.67
2019-03-25T08:29:04.231Z,81.25
2019-03-25T08:30:04.202Z,79.80
2019-03-25T08:31:04.209Z,79.70
2019-03-25T08:32:04.207Z,79.91
2019-03-25T08:33:04.282Z,79.29
2019-03-25T08:34:04.163Z,79.36
2019-03-25T08:35:04.152Z,79.77
2019-03-25T08:36:04.150Z,78.32
2019-03-25T08:37:04.469Z,79.46
2019-03-25T08:38:04.158Z,79.22
2019-03-25T08:39:04.128Z,79.73
2019-03-25T08:40:04.100Z,78.59
2019-03-25T08:41:04.085Z,77.46
2019-03-25T08:42:04.075Z,77.77
2019-03-25T08:43:04.082Z,75.74
2019-03-25T08:44:04.052Z,75.84
2019-03-25T08:45:04.051Z,77.39
2019-03-25T08:46:04.037Z,78.67
2019-03-25T08:47:04.030Z,77.91
2019-03-25T08:48:04.015Z,77.91
2019-03-25T08:49:04.016Z,77.29
2019-03-25T08:50:03.992Z,78.01
2019-03-25T08:51:03.983Z,78.63
2019-03-25T08:52:03.992Z,79.39
2019-03-25T08:53:03.958Z,80.94
2019-03-25T08:54:03.945Z,80.60
2019-03-25T08:55:03.958Z,81.67
2019-03-25T08:56:03.924Z,81.05
2019-03-25T08:57:03.912Z,81.09
2019-03-25T08:58:11.980Z,82.95
2019-03-25T08:59:04.905Z,83.09
2019-03-25T09:00:03.882Z,83.71
2019-03-25T09:01:03.889Z,81.74
2019-03-25T09:02:03.859Z,82.26
2019-03-25T09:03:03.849Z,83.29
2019-03-25T09:04:03.842Z,83.50
2019-03-25T09:05:03.868Z,82.78
2019-03-25T09:06:03.817Z,80.71
2019-03-25T09:07:03.828Z,80.95
2019-03-25T09:08:03.796Z,81.23
2019-03-25T09:09:03.785Z,82.36
2019-03-25T09:10:03.775Z,84.01
2019-03-25T09:11:03.798Z,83.64
2019-03-25T09:12:03.756Z,84.53
2019-03-25T09:13:03.775Z,83.85
2019-03-25T09:14:03.750Z,85.09
2019-03-25T09:15:03.731Z,86.58
2019-03-25T09:16:03.739Z,87.41
2019-03-25T09:17:03.751Z,87.62
2019-03-25T09:18:03.694Z,87.41
2019-03-25T09:19:03.770Z,86.68
2019-03-25T09:20:03.685Z,89.28
2019-03-25T09:21:03.752Z,88.13
2019-03-25T09:22:03.664Z,89.83
2019-03-25T09:23:03.641Z,89.79
2019-03-25T09:24:03.674Z,91.14
2019-03-25T09:25:03.637Z,90.20
2019-03-25T09:26:03.604Z,91.39
2019-03-25T09:27:03.613Z,90.97
2019-03-25T09:28:03.585Z,91.18
2019-03-25T09:29:03.580Z,91.22
2019-03-25T09:30:03.817Z,91.18
2019-03-25T09:31:03.552Z,92.26
2019-03-25T09:32:03.559Z,91.80
2019-03-25T09:33:05.360Z,91.28
2019-03-25T09:34:03.520Z,92.01
2019-03-25T09:35:04.308Z,92.94
2019-03-25T09:36:03.659Z,93.77
2019-03-25T09:37:03.511Z,93.46
2019-03-25T09:38:03.505Z,92.53
2019-03-25T09:39:03.466Z,92.22
2019-03-25T09:40:03.458Z,92.22
2019-03-25T09:41:03.445Z,93.25
2019-03-25T09:42:03.815Z,92.11
2019-03-25T09:43:03.456Z,91.66
2019-03-25T09:44:03.837Z,92.03
2019-03-25T09:45:03.448Z,90.64
2019-03-25T09:46:03.396Z,89.19
2019-03-25T09:47:03.417Z,87.78
2019-03-25T09:48:03.405Z,89.15
2019-03-25T09:49:03.817Z,86.13
2019-03-25T09:50:04.317Z,87.15
2019-03-25T09:51:03.339Z,82.61
2019-03-25T09:52:04.327Z,84.20
2019-03-25T09:53:03.332Z,84.36
2019-03-25T09:54:03.341Z,82.92
2019-03-25T09:55:03.333Z,84.30
2019-03-25T09:56:03.811Z,82.12
2019-03-25T09:57:03.350Z,80.30
2019-03-25T09:58:03.302Z,77.03
2019-03-25T09:59:03.271Z,75.97
2019-03-25T10:00:03.245Z,78.55
2019-03-25T10:01:03.234Z,77.82
2019-03-25T10:02:03.227Z,77.28
2019-03-25T10:03:03.225Z,76.62
2019-03-25T10:04:03.217Z,74.33
2019-03-25T10:05:03.210Z,73.74
2019-03-25T10:06:03.187Z,75.25
2019-03-25T10:07:03.178Z,72.78
2019-03-25T10:08:03.165Z,73.13
2019-03-25T10:09:03.156Z,72.96
2019-03-25T10:10:03.193Z,73.19
2019-03-25T10:11:03.139Z,71.42
2019-03-25T10:12:03.149Z,71.59
2019-03-25T10:13:03.132Z,73.33
2019-03-25T10:14:03.175Z,74.12
2019-03-25T10:15:03.086Z,76.28
2019-03-25T10:16:03.135Z,77.62
2019-03-25T10:17:03.066Z,77.76
2019-03-25T10:18:03.083Z,78.38
2019-03-25T10:19:03.048Z,77.90
2019-03-25T10:20:03.337Z,78.38
2019-03-25T10:21:03.019Z,78.18
2019-03-25T10:22:03.018Z,80.62
2019-03-25T10:23:03.001Z,77.90
2019-03-25T10:24:03.026Z,77.73
2019-03-25T10:25:03.009Z,80.27
2019-03-25T10:26:02.983Z,79.19
2019-03-25T10:27:02.954Z,78.06
2019-03-25T10:28:02.957Z,77.69
2019-03-25T10:29:03.005Z,75.70
2019-03-25T10:30:03.011Z,77.48
2019-03-25T10:31:02.915Z,78.31
2019-03-25T10:32:02.916Z,79.24
2019-03-25T10:33:02.893Z,79.27
2019-03-25T10:34:02.887Z,79.38
2019-03-25T10:35:02.890Z,78.72
2019-03-25T10:36:02.941Z,79.69
2019-03-25T10:37:02.859Z,80.14
2019-03-25T10:38:02.910Z,81.68
2019-03-25T10:39:02.827Z,81.00
2019-03-25T10:40:03.033Z,81.51
2019-03-25T10:41:02.825Z,83.10
2019-03-25T10:42:02.809Z,85.00
2019-03-25T10:43:02.784Z,86.69
2019-03-25T10:44:02.816Z,87.46
2019-03-25T10:45:02.764Z,89.62
2019-03-25T10:46:02.751Z,89.36
2019-03-25T10:47:02.762Z,90.60
2019-03-25T10:48:02.733Z,91.01
2019-03-25T10:49:02.718Z,91.49
2019-03-25T10:50:02.716Z,90.68
2019-03-25T10:51:02.704Z,89.77
2019-03-25T10:52:02.706Z,89.22
2019-03-25T10:53:02.692Z,89.40
2019-03-25T10:54:02.667Z,86.97
2019-03-25T10:55:02.673Z,87.54
2019-03-25T10:56:02.646Z,85.86
2019-03-25T10:57:02.633Z,86.99
2019-03-25T10:58:02.646Z,85.61
2019-03-25T10:59:02.622Z,85.44
2019-03-25T11:00:02.619Z,86.91
2019-03-25T11:01:02.630Z,86.15
2019-03-25T11:02:02.582Z,82.86
2019-03-25T11:03:02.592Z,82.24
2019-03-25T11:04:02.573Z,81.74
2019-03-25T11:05:02.569Z,82.01
2019-03-25T11:06:02.542Z,83.41
2019-03-25T11:07:02.539Z,81.81
2019-03-25T11:08:02.550Z,83.83
2019-03-25T11:09:02.513Z,82.63
2019-03-25T11:10:02.535Z,82.46
2019-03-25T11:11:03.565Z,82.60
2019-03-25T11:12:02.475Z,84.25
2019-03-25T11:13:02.461Z,83.47
2019-03-25T11:14:02.452Z,82.68
2019-03-25T11:15:02.451Z,82.71
2019-03-25T11:16:02.430Z,83.64
2019-03-25T11:17:02.439Z,84.72
2019-03-25T11:18:02.408Z,85.02
2019-03-25T11:19:02.402Z,85.68
2019-03-25T11:20:02.392Z,87.07
2019-03-25T11:21:02.393Z,87.37
2019-03-25T11:22:02.382Z,88.61
2019-03-25T11:23:02.874Z,88.82
2019-03-25T11:24:02.355Z,88.92
2019-03-25T11:25:02.335Z,89.23
2019-03-25T11:26:02.339Z,88.68
2019-03-25T11:27:02.310Z,88.47
2019-03-25T11:28:02.307Z,85.78
2019-03-25T11:29:08.367Z,85.17
2019-03-25T11:30:05.567Z,84.86
2019-03-25T11:31:02.269Z,85.58
2019-03-25T11:32:02.330Z,86.47
2019-03-25T11:33:02.247Z,85.81
2019-03-25T11:34:02.235Z,85.81
2019-03-25T11:35:02.229Z,83.40
2019-03-25T11:36:02.880Z,82.37
2019-03-25T11:37:02.217Z,83.36
2019-03-25T11:38:02.386Z,81.40
2019-03-25T11:39:02.182Z,78.96
2019-03-25T11:40:02.201Z,77.42
2019-03-25T11:41:03.820Z,78.07
2019-03-25T11:42:02.207Z,77.28
2019-03-25T11:43:02.154Z,79.33
2019-03-25T11:44:02.160Z,78.92
2019-03-25T11:45:03.872Z,78.68
2019-03-25T11:46:02.126Z,76.45
2019-03-25T11:47:02.095Z,77.38
2019-03-25T11:48:02.087Z,77.58
2019-03-25T11:49:02.073Z,75.18
2019-03-25T11:50:02.117Z,75.39
2019-03-25T11:51:02.075Z,74.77
2019-03-25T11:52:02.132Z,75.32
2019-03-25T11:53:02.027Z,76.97
2019-03-25T11:54:02.037Z,76.35
2019-03-25T11:55:02.011Z,77.69
2019-03-25T11:56:02.002Z,74.15
2019-03-25T11:57:02.052Z,73.44
2019-03-25T11:58:02.001Z,71.79
2019-03-25T11:59:03.120Z,74.05
2019-03-25T12:00:01.959Z,73.23
2019-03-25T12:01:01.956Z,74.15
2019-03-25T12:02:01.951Z,73.26
2019-03-25T12:03:01.983Z,72.24
2019-03-25T12:04:01.957Z,72.72
2019-03-25T12:05:01.914Z,71.58
2019-03-25T12:06:01.926Z,72.24
2019-03-25T12:07:01.882Z,71.65
2019-03-25T12:08:01.889Z,72.06
2019-03-25T12:09:01.859Z,72.37
2019-03-25T12:10:01.916Z,72.16
2019-03-25T12:11:01.837Z,72.27
2019-03-25T12:12:01.893Z,72.30
2019-03-25T12:13:01.822Z,71.28
2019-03-25T12:14:01.824Z,71.28
2019-03-25T12:15:02.053Z,70.97
2019-03-25T12:16:01.817Z,71.58
2019-03-25T12:17:01.772Z,71.28
2019-03-25T12:18:01.776Z,70.45
2019-03-25T12:19:01.750Z,68.70
2019-03-25T12:20:01.757Z,68.74
2019-03-25T12:21:02.377Z,69.12
2019-03-25T12:22:02.316Z,68.94
2019-03-25T12:23:01.767Z,68.02
2019-03-25T12:24:01.699Z,66.99
2019-03-25T12:25:01.689Z,67.91
2019-03-25T12:26:02.022Z,69.46
2019-03-25T12:27:01.676Z,67.60
2019-03-25T12:28:01.682Z,67.50
2019-03-25T12:29:02.312Z,67.71
2019-03-25T12:30:01.718Z,68.84
2019-03-25T12:31:01.640Z,70.48
2019-03-25T12:32:01.632Z,69.28
2019-03-25T12:33:04.313Z,72.16
2019-03-25T12:34:01.606Z,71.20
2019-03-25T12:35:02.317Z,70.25
2019-03-25T12:36:01.567Z,69.12
2019-03-25T12:37:01.557Z,72.00
2019-03-25T12:38:01.569Z,71.31
2019-03-25T12:39:02.361Z,71.41
2019-03-25T12:40:01.575Z,72.85
2019-03-25T12:41:01.576Z,73.61
2019-03-25T12:42:01.502Z,74.02
2019-03-25T12:43:01.508Z,73.02
2019-03-25T12:44:01.481Z,73.23
2019-03-25T12:45:01.473Z,71.65
2019-03-25T12:46:01.480Z,71.89
2019-03-25T12:47:02.358Z,70.39
2019-03-25T12:48:01.454Z,69.26
2019-03-25T12:49:01.487Z,68.74
2019-03-25T12:50:01.467Z,68.85
2019-03-25T12:51:01.464Z,68.23
2019-03-25T12:52:01.414Z,67.75